createdAt,value
2022-12-01T00:01:17.748Z,3.86
2022-12-01T00:03:44.482Z,3.95
2022-12-01T00:06:15.641Z,4.14
2022-12-01T00:09:06.075Z,4.08
2022-12-01T00:11:34.929Z,4.27
2022-12-01T00:14:02.090Z,4.02
2022-12-01T00:16:29.316Z,3.90
2022-12-01T00:18:56.276Z,4.28
2022-12-01T00:21:24.394Z,3.96
2022-12-01T00:23:54.075Z,3.94
2022-12-01T00:26:21.524Z,3.70
2022-12-01T00:28:52.587Z,4.05
2022-12-01T00:31:19.864Z,3.88
2022-12-01T00:33:46.585Z,3.63
2022-12-01T00:36:15.758Z,3.88
2022-12-01T00:38:42.446Z,3.82
2022-12-01T00:41:09.369Z,3.73
2022-12-01T00:43:35.990Z,3.90
2022-12-01T00:46:02.689Z,3.79
2022-12-01T00:48:29.412Z,3.80
2022-12-01T00:50:56.067Z,3.74
2022-12-01T00:53:23.425Z,3.98
2022-12-01T00:55:50.304Z,3.97
2022-12-01T00:58:16.967Z,3.91
2022-12-01T01:00:43.630Z,3.86
2022-12-01T01:03:10.954Z,4.01
2022-12-01T01:05:46.346Z,4.04
2022-12-01T01:08:15.001Z,4.04
2022-12-01T01:10:43.523Z,3.98
2022-12-01T01:13:11.472Z,3.87
2022-12-01T01:15:38.580Z,3.94
2022-12-01T01:18:05.845Z,3.55
2022-12-01T01:20:32.732Z,3.80
2022-12-01T01:22:59.708Z,3.24
2022-12-01T01:25:28.484Z,3.41
2022-12-01T01:27:55.122Z,3.82
2022-12-01T01:30:22.043Z,3.85
2022-12-01T01:32:50.788Z,3.74
2022-12-01T01:35:17.443Z,3.53
2022-12-01T01:40:24.567Z,3.58
2022-12-01T01:42:51.165Z,3.36
2022-12-01T01:45:29.791Z,3.84
2022-12-01T01:47:59.771Z,3.91
2022-12-01T01:50:29.615Z,3.84
2022-12-01T01:53:02.286Z,3.81
2022-12-01T01:55:33.976Z,2.96
2022-12-01T01:58:04.793Z,3.57
2022-12-01T02:00:31.535Z,3.71
2022-12-01T02:02:59.843Z,3.16
2022-12-01T02:05:32.692Z,3.21
2022-12-01T02:08:04.642Z,3.50
2022-12-01T02:11:00.698Z,3.83
2022-12-01T02:13:58.956Z,3.68
2022-12-01T02:16:55.016Z,3.39
2022-12-01T02:19:33.953Z,3.68
2022-12-01T02:22:22.373Z,3.96
2022-12-01T02:25:07.809Z,3.95
2022-12-01T02:28:22.298Z,3.74
2022-12-01T02:30:52.721Z,3.83
2022-12-01T02:33:34.991Z,3.44
2022-12-01T02:36:27.784Z,3.61
2022-12-01T02:39:10.810Z,3.71
2022-12-01T02:41:42.988Z,3.46
2022-12-01T02:44:25.991Z,3.72
2022-12-01T02:47:14.599Z,3.76
2022-12-01T02:49:47.625Z,3.68
2022-12-01T02:52:16.130Z,3.39
2022-12-01T02:54:45.227Z,3.58
2022-12-01T02:57:13.975Z,3.52
2022-12-01T02:59:47.185Z,3.60
2022-12-01T03:02:42.591Z,3.71
2022-12-01T03:05:24.634Z,2.82
2022-12-01T03:07:54.429Z,3.51
2022-12-01T03:10:42.401Z,3.72
2022-12-01T03:13:53.969Z,3.54
2022-12-01T03:16:29.119Z,3.50
2022-12-01T03:19:10.347Z,3.49
2022-12-01T03:21:50.467Z,3.46
2022-12-01T03:24:20.428Z,2.81
2022-12-01T03:26:54.191Z,3.11
2022-12-01T03:29:26.776Z,3.24
2022-12-01T03:32:05.411Z,2.90
2022-12-01T03:34:40.863Z,3.20
2022-12-01T03:37:15.998Z,3.07
2022-12-01T03:39:46.222Z,3.33
2022-12-01T03:42:23.515Z,3.23
2022-12-01T03:44:56.502Z,3.00
2022-12-01T03:47:32.105Z,2.96
2022-12-01T03:50:00.572Z,3.06
2022-12-01T03:52:32.877Z,3.30
2022-12-01T03:55:16.336Z,3.45
2022-12-01T03:58:05.820Z,3.38
2022-12-01T04:00:33.457Z,3.29
2022-12-01T04:03:03.196Z,3.51
2022-12-01T04:05:32.364Z,3.36
2022-12-01T04:07:59.577Z,3.12
2022-12-01T04:10:26.448Z,2.95
2022-12-01T04:12:59.022Z,2.82
2022-12-01T04:15:26.754Z,2.98
2022-12-01T04:17:53.250Z,3.40
2022-12-01T04:20:20.719Z,3.21
2022-12-01T04:22:48.594Z,2.98
2022-12-01T04:25:15.402Z,2.68
2022-12-01T04:27:42.077Z,2.26
2022-12-01T04:30:12.618Z,2.62
2022-12-01T04:32:40.869Z,2.95
2022-12-01T04:35:09.046Z,2.87
2022-12-01T04:37:40.246Z,3.21
2022-12-01T04:40:08.238Z,3.31
2022-12-01T04:42:37.377Z,2.82
2022-12-01T04:45:07.657Z,3.16
2022-12-01T04:47:34.309Z,3.08
2022-12-01T04:50:00.878Z,2.75
2022-12-01T04:52:32.140Z,2.58
2022-12-01T04:55:03.959Z,2.43
2022-12-01T04:57:30.571Z,2.16
2022-12-01T04:59:57.178Z,2.30
2022-12-01T05:02:23.823Z,2.86
2022-12-01T05:04:50.503Z,2.73
2022-12-01T05:07:18.262Z,2.99
2022-12-01T05:09:44.963Z,2.54
2022-12-01T05:12:11.563Z,2.44
2022-12-01T05:14:38.240Z,2.62
2022-12-01T05:17:04.847Z,2.78
2022-12-01T05:19:50.321Z,2.77
2022-12-01T05:22:18.450Z,3.09
2022-12-01T05:24:49.839Z,2.73
2022-12-01T05:27:16.396Z,2.70
2022-12-01T05:29:43.125Z,2.58
2022-12-01T05:32:15.823Z,2.81
2022-12-01T05:34:42.470Z,3.08
2022-12-01T05:37:12.221Z,3.06
2022-12-01T05:39:40.296Z,2.63
2022-12-01T05:42:06.878Z,2.64
2022-12-01T05:44:33.518Z,2.63
2022-12-01T05:47:00.131Z,2.94
2022-12-01T05:49:26.841Z,3.01
2022-12-01T05:51:53.413Z,2.97
2022-12-01T05:54:26.076Z,2.80
2022-12-01T05:56:52.736Z,2.88
2022-12-01T05:59:19.304Z,2.92
2022-12-01T06:01:48.160Z,2.96
2022-12-01T06:04:15.075Z,3.10
2022-12-01T06:06:41.751Z,3.09
2022-12-01T06:09:15.940Z,3.07
2022-12-01T06:11:42.649Z,2.99
2022-12-01T06:14:09.257Z,2.73
2022-12-01T06:16:35.946Z,3.03
2022-12-01T06:19:02.588Z,3.13
2022-12-01T06:21:31.383Z,3.00
2022-12-01T06:23:57.977Z,2.99
2022-12-01T06:26:24.627Z,2.76
2022-12-01T06:28:51.289Z,3.08
2022-12-01T06:31:18.005Z,3.02
2022-12-01T06:33:44.619Z,3.15
2022-12-01T06:36:11.335Z,2.65
2022-12-01T06:38:37.897Z,3.01
2022-12-01T06:41:05.737Z,3.19
2022-12-01T06:43:32.656Z,2.77
2022-12-01T06:46:01.985Z,2.78
2022-12-01T06:48:32.834Z,2.85
2022-12-01T06:51:00.685Z,2.94
2022-12-01T06:53:28.617Z,3.28
2022-12-01T06:56:00.835Z,3.30
2022-12-01T06:58:30.088Z,3.13
2022-12-01T07:01:01.165Z,3.28
2022-12-01T07:03:27.859Z,3.21
2022-12-01T07:06:01.602Z,3.42
2022-12-01T07:08:29.886Z,2.85
2022-12-01T07:10:57.617Z,3.24
2022-12-01T07:13:25.767Z,3.20
2022-12-01T07:15:55.748Z,3.16
2022-12-01T07:18:22.331Z,2.85
2022-12-01T07:20:49.084Z,2.92
2022-12-01T07:23:15.825Z,3.19
2022-12-01T07:25:42.547Z,2.99
2022-12-01T07:28:16.580Z,3.09
2022-12-01T07:30:43.306Z,3.13
2022-12-01T07:33:09.939Z,3.19
2022-12-01T07:35:38.627Z,2.79
2022-12-01T07:38:05.240Z,2.98
2022-12-01T07:40:32.257Z,3.14
2022-12-01T07:43:01.195Z,3.15
2022-12-01T07:45:29.957Z,3.22
2022-12-01T07:47:56.562Z,2.92
2022-12-01T07:50:23.223Z,3.02
2022-12-01T07:52:50.959Z,3.11
2022-12-01T07:55:17.687Z,2.99
2022-12-01T07:57:46.343Z,3.13
2022-12-01T08:00:13.690Z,3.32
2022-12-01T08:02:43.118Z,3.39
2022-12-01T08:05:09.768Z,3.10
2022-12-01T08:07:36.418Z,3.28
2022-12-01T08:10:03.610Z,3.02
2022-12-01T08:12:30.188Z,3.32
2022-12-01T08:14:56.864Z,3.20
2022-12-01T08:17:23.498Z,3.36
2022-12-01T08:19:50.452Z,3.13
2022-12-01T08:22:17.370Z,3.26
2022-12-01T08:24:44.039Z,3.02
2022-12-01T08:27:10.601Z,3.15
2022-12-01T08:29:37.242Z,3.42
2022-12-01T08:32:06.557Z,2.83
2022-12-01T08:34:36.406Z,3.24
2022-12-01T08:37:03.092Z,3.00
2022-12-01T08:39:30.239Z,3.31
2022-12-01T08:41:56.848Z,3.15
2022-12-01T08:44:23.487Z,3.10
2022-12-01T08:46:50.243Z,3.32
2022-12-01T08:49:16.929Z,2.71
2022-12-01T08:51:43.692Z,3.19
2022-12-01T08:54:11.815Z,3.28
2022-12-01T08:56:41.711Z,3.23
2022-12-01T08:59:16.161Z,3.09
2022-12-01T09:01:57.449Z,3.37
2022-12-01T09:04:28.159Z,3.54
2022-12-01T09:07:01.014Z,3.43
2022-12-01T09:09:29.012Z,3.18
2022-12-01T09:11:56.233Z,3.32
2022-12-01T09:14:26.050Z,3.33
2022-12-01T09:16:52.932Z,3.37
2022-12-01T09:19:24.592Z,3.59
2022-12-01T09:21:55.058Z,3.55
2022-12-01T09:24:21.847Z,3.73
2022-12-01T09:26:48.558Z,3.23
2022-12-01T09:29:19.038Z,3.67
2022-12-01T09:31:45.742Z,3.54
2022-12-01T09:34:15.511Z,3.86
2022-12-01T09:36:42.433Z,3.61
2022-12-01T09:39:21.387Z,3.85
2022-12-01T09:42:09.011Z,3.80
2022-12-01T09:44:49.077Z,3.72
2022-12-01T09:47:32.280Z,4.02
2022-12-01T09:50:16.194Z,3.71
2022-12-01T09:52:48.335Z,3.52
2022-12-01T09:55:17.483Z,3.74
2022-12-01T09:57:47.946Z,3.06
2022-12-01T10:00:21.529Z,3.81
2022-12-01T10:02:50.468Z,3.80
2022-12-01T10:05:21.122Z,3.89
2022-12-01T10:08:07.960Z,4.16
2022-12-01T10:10:44.955Z,4.13
2022-12-01T10:13:29.133Z,3.92
2022-12-01T10:16:12.443Z,3.69
2022-12-01T10:19:01.267Z,4.10
2022-12-01T10:21:52.985Z,4.11
2022-12-01T10:24:31.766Z,3.58
2022-12-01T10:27:18.845Z,4.08
2022-12-01T10:29:48.154Z,3.53
2022-12-01T10:32:27.794Z,3.76
2022-12-01T10:34:54.498Z,3.56
2022-12-01T10:37:25.185Z,3.71
2022-12-01T10:39:55.114Z,3.89
2022-12-01T10:42:37.669Z,3.73
2022-12-01T10:48:09.015Z,3.94
2022-12-01T10:50:39.541Z,3.37
2022-12-01T10:53:06.222Z,3.64
2022-12-01T10:55:36.479Z,3.98
2022-12-01T10:58:14.040Z,4.05
2022-12-01T11:01:05.017Z,3.91
2022-12-01T11:03:36.931Z,4.09
2022-12-01T11:06:07.481Z,4.09
2022-12-01T11:08:46.765Z,4.16
2022-12-01T11:11:24.821Z,4.21
2022-12-01T11:13:54.071Z,3.58
2022-12-01T11:16:44.827Z,4.15
2022-12-01T11:19:14.307Z,4.07
2022-12-01T11:21:52.594Z,4.35
2022-12-01T11:24:27.364Z,4.21
2022-12-01T11:26:54.202Z,4.11
2022-12-01T11:29:32.515Z,3.70
2022-12-01T11:32:00.717Z,4.02
2022-12-01T11:34:33.215Z,4.03
2022-12-01T11:37:04.187Z,4.13
2022-12-01T11:39:37.588Z,4.30
2022-12-01T11:42:06.332Z,4.14
2022-12-01T11:44:50.861Z,3.86
2022-12-01T11:47:25.447Z,4.08
2022-12-01T11:50:00.688Z,4.07
2022-12-01T11:52:30.023Z,4.06
2022-12-01T11:54:59.043Z,4.21
2022-12-01T11:57:35.420Z,3.84
2022-12-01T12:00:12.454Z,3.55
2022-12-01T12:03:05.363Z,4.08
2022-12-01T12:06:11.643Z,3.61
2022-12-01T12:09:16.573Z,3.49
2022-12-01T12:12:03.642Z,3.81
2022-12-01T12:15:06.771Z,3.53
2022-12-01T12:18:01.176Z,3.66
2022-12-01T12:20:52.449Z,4.02
2022-12-01T12:23:40.402Z,3.81
2022-12-01T12:26:17.930Z,3.93
2022-12-01T12:29:13.965Z,3.14
2022-12-01T12:31:49.850Z,2.97
2022-12-01T12:34:28.341Z,3.68
2022-12-01T12:37:16.079Z,3.63
2022-12-01T12:40:05.734Z,3.95
2022-12-01T12:42:50.352Z,3.29
2022-12-01T12:45:30.467Z,3.61
2022-12-01T12:48:21.341Z,4.23
2022-12-01T12:51:02.376Z,3.47
2022-12-01T12:53:38.510Z,3.20
2022-12-01T12:56:10.141Z,3.75
2022-12-01T12:58:50.732Z,3.97
2022-12-01T13:01:25.172Z,3.67
2022-12-01T13:04:00.311Z,3.19
2022-12-01T13:06:42.568Z,3.78
2022-12-01T13:09:21.675Z,3.74
2022-12-01T13:12:08.188Z,3.85
2022-12-01T13:14:59.445Z,4.19
2022-12-01T13:17:38.329Z,4.02
2022-12-01T13:20:06.158Z,3.41
2022-12-01T13:22:40.273Z,3.78
2022-12-01T13:25:07.745Z,3.83
2022-12-01T13:27:42.805Z,3.92
2022-12-01T13:30:27.328Z,3.95
2022-12-01T13:33:03.235Z,4.13
2022-12-01T13:35:34.141Z,3.86
2022-12-01T13:38:35.848Z,3.79
2022-12-01T13:41:21.648Z,3.66
2022-12-01T13:44:06.206Z,4.01
2022-12-01T13:46:42.097Z,4.05
2022-12-01T13:49:45.782Z,3.88
2022-12-01T13:52:23.850Z,3.42
2022-12-01T13:55:09.492Z,3.97
2022-12-01T13:58:01.129Z,4.19
2022-12-01T14:00:31.049Z,3.58
2022-12-01T14:03:13.289Z,3.71
2022-12-01T14:05:39.932Z,3.61
2022-12-01T14:08:23.476Z,3.92
2022-12-01T14:11:04.645Z,3.99
2022-12-01T14:13:36.295Z,3.47
2022-12-01T14:16:04.547Z,3.58
2022-12-01T14:18:40.158Z,3.54
2022-12-01T14:21:10.643Z,3.73
2022-12-01T14:23:58.204Z,3.55
2022-12-01T14:26:28.530Z,3.30
2022-12-01T14:28:55.076Z,3.59
2022-12-01T14:31:46.722Z,3.45
2022-12-01T14:34:24.368Z,2.89
2022-12-01T14:37:15.731Z,3.16
2022-12-01T14:39:48.766Z,2.95
2022-12-01T14:43:06.138Z,3.74
2022-12-01T14:46:04.781Z,3.44
2022-12-01T14:48:43.185Z,2.81
2022-12-01T14:51:46.848Z,3.10
2022-12-01T14:54:30.744Z,3.73
2022-12-01T14:57:06.787Z,3.54
2022-12-01T14:59:35.402Z,3.64
2022-12-01T15:02:09.478Z,3.61
2022-12-01T15:05:11.091Z,2.99
2022-12-01T15:07:46.617Z,3.22
2022-12-01T15:10:17.974Z,3.45
2022-12-01T15:12:44.964Z,2.91
2022-12-01T15:15:26.022Z,3.34
2022-12-01T15:18:01.721Z,3.14
2022-12-01T15:20:56.671Z,3.37
2022-12-01T15:23:23.321Z,3.28
2022-12-01T15:25:49.946Z,3.43
2022-12-01T15:28:19.016Z,3.39
2022-12-01T15:30:50.633Z,3.16
2022-12-01T15:33:27.635Z,3.07
2022-12-01T15:35:56.489Z,3.20
2022-12-01T15:38:28.393Z,3.58
2022-12-01T15:43:43.182Z,3.61
2022-12-01T15:46:15.600Z,3.52
2022-12-01T15:48:43.428Z,3.56
2022-12-01T15:51:17.472Z,3.86
2022-12-01T15:54:01.590Z,3.76
2022-12-01T15:56:30.026Z,3.67
2022-12-01T15:59:17.368Z,3.90
2022-12-01T16:01:45.100Z,3.54
2022-12-01T16:04:30.904Z,3.55
2022-12-01T16:07:05.558Z,3.75
2022-12-01T16:09:43.323Z,3.61
2022-12-01T16:12:15.938Z,3.07
2022-12-01T16:14:50.149Z,3.36
2022-12-01T16:17:17.298Z,3.36
2022-12-01T16:19:45.478Z,3.56
2022-12-01T16:22:14.692Z,3.33
2022-12-01T16:24:56.340Z,3.86
2022-12-01T16:27:47.042Z,3.61
2022-12-01T16:30:24.454Z,3.55
2022-12-01T16:32:59.762Z,3.21
2022-12-01T16:35:32.076Z,3.29
2022-12-01T16:37:58.982Z,3.40
2022-12-01T16:40:26.065Z,3.24
2022-12-01T16:42:52.742Z,3.04
2022-12-01T16:45:19.935Z,3.21
2022-12-01T16:47:48.687Z,3.15
2022-12-01T16:50:23.153Z,2.99
2022-12-01T16:52:49.870Z,3.06
2022-12-01T16:55:39.202Z,3.53
2022-12-01T16:58:05.937Z,3.18
2022-12-01T17:00:32.797Z,3.08
2022-12-01T17:02:59.840Z,3.35
2022-12-01T17:05:26.589Z,3.52
2022-12-01T17:07:53.532Z,3.55
2022-12-01T17:10:21.544Z,3.81
2022-12-01T17:12:49.994Z,3.43
2022-12-01T17:15:17.002Z,2.77
2022-12-01T17:17:43.726Z,2.97
2022-12-01T17:20:12.075Z,3.09
2022-12-01T17:22:38.777Z,3.28
2022-12-01T17:25:05.812Z,3.05
2022-12-01T17:27:32.797Z,3.11
2022-12-01T17:30:01.986Z,3.39
2022-12-01T17:32:28.730Z,3.33
2022-12-01T17:34:55.452Z,3.01
2022-12-01T17:37:22.084Z,3.35
2022-12-01T17:39:50.370Z,3.34
2022-12-01T17:42:17.392Z,3.41
2022-12-01T17:44:44.031Z,3.55
2022-12-01T17:47:11.451Z,3.42
2022-12-01T17:49:38.765Z,3.55
2022-12-01T17:52:06.735Z,3.48
2022-12-01T17:54:33.329Z,3.59
2022-12-01T17:57:00.467Z,3.28
2022-12-01T17:59:27.128Z,3.61
2022-12-01T18:01:53.824Z,3.40
2022-12-01T18:04:20.582Z,3.41
2022-12-01T18:06:53.567Z,2.83
2022-12-01T18:09:20.595Z,3.14
2022-12-01T18:11:47.214Z,3.10
2022-12-01T18:14:17.652Z,3.22
2022-12-01T18:16:45.062Z,3.11
2022-12-01T18:19:12.273Z,3.24
2022-12-01T18:21:39.881Z,3.17
2022-12-01T18:24:08.902Z,3.07
2022-12-01T18:26:36.667Z,3.38
2022-12-01T18:29:05.648Z,3.46
2022-12-01T18:31:33.182Z,3.32
2022-12-01T18:34:04.943Z,3.10
2022-12-01T18:36:34.065Z,3.24
2022-12-01T18:39:03.049Z,3.28
2022-12-01T18:41:29.973Z,3.37
2022-12-01T18:43:56.647Z,3.01
2022-12-01T18:46:23.588Z,3.36
2022-12-01T18:48:52.523Z,3.06
2022-12-01T18:51:21.045Z,2.94
2022-12-01T18:53:47.917Z,3.03
2022-12-01T18:56:15.718Z,3.08
2022-12-01T18:58:42.899Z,3.03
2022-12-01T19:01:23.214Z,3.40
2022-12-01T19:03:50.005Z,3.20
2022-12-01T19:06:17.610Z,2.80
2022-12-01T19:08:46.313Z,3.11
2022-12-01T19:11:13.306Z,2.33
2022-12-01T19:13:40.077Z,2.99
2022-12-01T19:16:09.318Z,3.21
2022-12-01T19:18:37.346Z,3.19
2022-12-01T19:21:06.320Z,3.31
2022-12-01T19:23:35.554Z,2.79
2022-12-01T19:26:07.137Z,3.31
2022-12-01T19:28:35.202Z,3.02
2022-12-01T19:31:25.507Z,3.23
2022-12-01T19:33:54.139Z,3.15
2022-12-01T19:36:25.676Z,3.24
2022-12-01T19:38:52.589Z,3.20
2022-12-01T19:41:20.857Z,3.04
2022-12-01T19:43:48.540Z,2.95
2022-12-01T19:46:18.241Z,2.58
2022-12-01T19:48:45.461Z,2.77
2022-12-01T19:51:20.426Z,2.89
2022-12-01T19:53:48.089Z,3.13
2022-12-01T19:56:14.556Z,3.42
2022-12-01T19:58:41.260Z,3.22
2022-12-01T20:01:13.147Z,3.14
2022-12-01T20:03:44.091Z,3.05
2022-12-01T20:06:12.712Z,2.86
2022-12-01T20:08:39.545Z,2.93
2022-12-01T20:11:07.184Z,2.99
2022-12-01T20:13:34.885Z,2.81
2022-12-01T20:16:07.462Z,2.82
2022-12-01T20:18:34.432Z,2.83
2022-12-01T20:21:06.164Z,2.98
2022-12-01T20:23:33.862Z,2.71
2022-12-01T20:26:01.526Z,2.80
2022-12-01T20:28:28.484Z,2.81
2022-12-01T20:30:55.216Z,2.34
2022-12-01T20:33:21.954Z,2.73
2022-12-01T20:35:49.228Z,2.83
2022-12-01T20:38:16.312Z,3.00
2022-12-01T20:40:42.906Z,2.67
2022-12-01T20:43:09.634Z,3.05
2022-12-01T20:45:36.571Z,2.77
2022-12-01T20:48:03.388Z,2.52
2022-12-01T20:50:29.966Z,2.70
2022-12-01T20:52:56.694Z,2.82
2022-12-01T20:55:24.459Z,2.68
2022-12-01T20:57:51.436Z,2.32
2022-12-01T21:00:18.386Z,2.86
2022-12-01T21:02:46.014Z,2.95
2022-12-01T21:05:12.650Z,2.91
2022-12-01T21:07:39.359Z,2.69
2022-12-01T21:10:06.683Z,2.99
2022-12-01T21:12:51.935Z,2.77
2022-12-01T21:15:26.230Z,3.01
2022-12-01T21:18:03.498Z,2.96
2022-12-01T21:20:40.687Z,3.04
2022-12-01T21:23:14.438Z,2.80
2022-12-01T21:25:42.236Z,2.46
2022-12-01T21:28:20.945Z,2.80
2022-12-01T21:30:49.749Z,2.87
2022-12-01T21:33:19.239Z,2.45
2022-12-01T21:35:45.982Z,2.61
2022-12-01T21:38:16.551Z,2.49
2022-12-01T21:40:47.892Z,2.42
2022-12-01T21:43:18.863Z,2.60
2022-12-01T21:45:46.373Z,2.75
2022-12-01T21:48:16.600Z,2.67
2022-12-01T21:50:48.129Z,2.22
2022-12-01T21:53:20.257Z,2.12
2022-12-01T21:55:47.708Z,2.64
2022-12-01T21:58:21.641Z,2.78
2022-12-01T22:00:48.423Z,2.26
2022-12-01T22:03:27.157Z,2.23
2022-12-01T22:06:31.369Z,2.63
2022-12-01T22:09:04.099Z,2.70
2022-12-01T22:11:31.377Z,2.42
2022-12-01T22:14:35.481Z,2.73
2022-12-01T22:17:08.853Z,2.83
2022-12-01T22:19:39.073Z,2.74
2022-12-01T22:22:08.718Z,2.52
2022-12-01T22:24:47.924Z,2.72
2022-12-01T22:27:30.600Z,2.76
2022-12-01T22:30:21.956Z,2.68
2022-12-01T22:33:05.488Z,2.83
2022-12-01T22:35:45.408Z,2.65
2022-12-01T22:38:20.620Z,2.21
2022-12-01T22:41:14.076Z,2.77
2022-12-01T22:43:41.127Z,2.42
2022-12-01T22:46:10.785Z,2.51
2022-12-01T22:48:44.045Z,2.47
2022-12-01T22:51:13.965Z,2.59
2022-12-01T22:53:42.250Z,2.85
2022-12-01T22:56:27.764Z,2.34
2022-12-01T22:58:54.919Z,2.42
2022-12-01T23:01:33.600Z,2.86
2022-12-01T23:04:24.236Z,2.81
2022-12-01T23:06:52.475Z,2.53
2022-12-01T23:09:23.855Z,2.55
2022-12-01T23:12:05.608Z,2.66
2022-12-01T23:14:34.017Z,2.74
2022-12-01T23:17:07.060Z,2.73
2022-12-01T23:19:35.079Z,2.71
2022-12-01T23:22:02.501Z,2.42
2022-12-01T23:24:33.698Z,2.49
2022-12-01T23:27:00.835Z,1.91
2022-12-01T23:29:27.851Z,2.70
2022-12-01T23:31:54.972Z,2.52
2022-12-01T23:34:21.583Z,2.70
2022-12-01T23:36:50.237Z,2.23
2022-12-01T23:39:18.378Z,2.72
2022-12-01T23:41:48.575Z,2.64
2022-12-01T23:44:37.166Z,2.44
2022-12-01T23:47:10.146Z,2.39
2022-12-01T23:49:36.891Z,2.62
2022-12-01T23:52:04.055Z,2.72
2022-12-01T23:54:33.861Z,2.31
2022-12-01T23:57:30.618Z,2.23
